Ehrenfeld, Pennsylvania
Current Conditions -  °F | °C
As of 8:54 AM on Wednesday 28 Jan 2015 (Local Time) from KJST Reporting Station
Haze Haze  
Wind Chill: -2°   Ceiling: 800
Heat Index:   Visibility: 4mi
Dew Point:   Wind: 7mph
Humidity: 84%   Direction: 250°WSW
Pressure: 30.15"   Gusts: NA
Location:  40.3793°N, 78.7888°W
Report Text: KJST 281354Z AUTO 25006KT 4SM BR OVC008 M13/M15 A3015 RMK AO2 SNE45 SLP256 P0000 T11281150
Loading
Personal Weather Stations






























Interactive Weather Map New forecast layout! Learn more

10-Day Weather Forecast

Advertisements
Track Severe Weather on mobile